createdAt,value
2018-11-12T00:00:16.122Z,87.60
2018-11-12T00:02:46.341Z,87.80
2018-11-12T00:05:13.765Z,87.50
2018-11-12T00:07:41.130Z,87.20
2018-11-12T00:10:10.439Z,87.30
2018-11-12T00:12:41.271Z,87.30
2018-11-12T00:15:10.835Z,86.90
2018-11-12T00:17:41.348Z,86.80
2018-11-12T00:20:11.620Z,87.00
2018-11-12T00:22:40.378Z,86.80
2018-11-12T00:25:09.671Z,86.70
2018-11-12T00:27:39.805Z,86.60
2018-11-12T00:30:13.375Z,86.50
2018-11-12T00:32:42.775Z,86.50
2018-11-12T00:37:46.221Z,86.40
2018-11-12T00:40:14.522Z,85.30
2018-11-12T00:42:42.582Z,85.10
2018-11-12T00:45:11.349Z,85.10
2018-11-12T00:47:40.106Z,86.30
2018-11-12T00:50:09.425Z,86.60
2018-11-12T00:52:39.382Z,86.70
2018-11-12T00:55:09.091Z,86.90
2018-11-12T00:57:36.674Z,86.70
2018-11-12T01:00:05.194Z,86.70
2018-11-12T01:02:35.421Z,86.70
2018-11-12T01:05:02.961Z,86.50
2018-11-12T01:07:31.854Z,86.70
2018-11-12T01:10:01.992Z,86.60
2018-11-12T01:12:30.748Z,86.70
2018-11-12T01:14:59.299Z,86.40
2018-11-12T01:17:28.012Z,86.40
2018-11-12T01:19:55.120Z,86.40
2018-11-12T01:22:25.811Z,86.00
2018-11-12T01:24:55.783Z,85.80
2018-11-12T01:27:25.203Z,85.00
2018-11-12T01:29:52.971Z,86.30
2018-11-12T01:32:21.315Z,85.20
2018-11-12T01:34:48.450Z,85.20
2018-11-12T01:37:17.209Z,85.60
2018-11-12T01:39:44.302Z,85.20
2018-11-12T01:42:13.521Z,84.90
2018-11-12T01:44:43.397Z,84.70
2018-11-12T01:47:10.560Z,85.00
2018-11-12T01:49:41.780Z,85.10
2018-11-12T01:52:09.690Z,85.00
2018-11-12T01:54:37.384Z,85.00
2018-11-12T01:57:04.581Z,85.00
2018-11-12T01:59:37.265Z,84.80
2018-11-12T02:02:07.354Z,84.80
2018-11-12T02:04:34.880Z,84.80
2018-11-12T02:07:03.071Z,84.90
2018-11-12T02:09:32.184Z,84.70
2018-11-12T02:12:00.054Z,85.10
2018-11-12T02:14:28.392Z,85.00
2018-11-12T02:16:55.813Z,85.50
2018-11-12T02:19:23.002Z,86.80
2018-11-12T02:21:52.362Z,86.90
2018-11-12T02:24:20.320Z,87.20
2018-11-12T02:26:47.427Z,87.40
2018-11-12T02:29:15.219Z,87.40
2018-11-12T02:31:43.968Z,87.30
2018-11-12T02:34:11.194Z,87.50
2018-11-12T02:36:38.271Z,87.60
2018-11-12T02:39:08.465Z,87.90
2018-11-12T02:41:35.564Z,87.80
2018-11-12T02:44:06.230Z,88.30
2018-11-12T02:46:35.674Z,88.30
2018-11-12T02:49:03.918Z,88.50
2018-11-12T02:51:33.358Z,88.70
2018-11-12T02:54:00.632Z,89.00
2018-11-12T02:56:31.521Z,88.90
2018-11-12T02:58:59.656Z,88.90
2018-11-12T03:01:26.794Z,88.90
2018-11-12T03:03:54.087Z,88.90
2018-11-12T03:06:21.401Z,88.80
2018-11-12T03:08:48.923Z,89.00
2018-11-12T03:11:16.077Z,89.30
2018-11-12T03:13:43.478Z,89.30
2018-11-12T03:16:10.940Z,89.30
2018-11-12T03:18:40.839Z,89.20
2018-11-12T03:21:09.031Z,89.20
2018-11-12T03:23:37.489Z,89.40
2018-11-12T03:26:05.775Z,89.50
2018-11-12T03:28:33.594Z,89.70
2018-11-12T03:31:01.528Z,89.60
2018-11-12T03:33:29.220Z,89.60
2018-11-12T03:35:56.614Z,89.60
2018-11-12T03:38:25.272Z,89.50
2018-11-12T03:40:53.188Z,89.60
2018-11-12T03:43:22.527Z,89.70
2018-11-12T03:45:50.502Z,89.80
2018-11-12T03:48:18.587Z,89.80
2018-11-12T03:50:47.224Z,89.80
2018-11-12T03:53:18.819Z,90.00
2018-11-12T03:55:46.624Z,90.10
2018-11-12T03:58:13.786Z,90.00
2018-11-12T04:00:41.021Z,90.10
2018-11-12T04:03:08.952Z,90.10
2018-11-12T04:05:36.773Z,90.20
2018-11-12T04:08:04.487Z,90.30
2018-11-12T04:10:33.071Z,90.30
2018-11-12T04:13:02.165Z,90.10
2018-11-12T04:15:30.268Z,90.00
2018-11-12T04:17:58.471Z,89.80
2018-11-12T04:20:27.126Z,89.60
2018-11-12T04:23:02.650Z,89.40
2018-11-12T04:25:30.839Z,89.10
2018-11-12T04:27:58.033Z,89.10
2018-11-12T04:30:25.890Z,89.00
2018-11-12T04:32:54.036Z,89.40
2018-11-12T04:35:21.180Z,89.60
2018-11-12T04:37:50.717Z,89.60
2018-11-12T04:40:19.070Z,89.90
2018-11-12T04:42:50.251Z,90.00
2018-11-12T04:45:19.511Z,90.00
2018-11-12T04:47:47.408Z,90.00
2018-11-12T04:50:17.131Z,90.00
2018-11-12T04:52:46.372Z,90.30
2018-11-12T04:55:15.684Z,89.90
2018-11-12T04:57:44.463Z,89.80
2018-11-12T05:00:15.578Z,89.80
2018-11-12T05:02:45.695Z,89.70
2018-11-12T05:05:15.917Z,90.00
2018-11-12T05:07:44.992Z,90.00
2018-11-12T05:10:14.153Z,90.00
2018-11-12T05:12:43.361Z,90.00
2018-11-12T05:15:15.879Z,90.10
2018-11-12T05:17:44.621Z,90.20
2018-11-12T05:20:17.063Z,90.40
2018-11-12T05:22:47.618Z,90.30
2018-11-12T05:25:15.912Z,90.30
2018-11-12T05:27:44.858Z,90.40
2018-11-12T05:30:29.650Z,90.40
2018-11-12T05:32:58.706Z,90.30
2018-11-12T05:35:28.424Z,90.20
2018-11-12T05:37:58.804Z,90.10
2018-11-12T05:40:27.681Z,90.10
2018-11-12T05:42:56.254Z,90.00
2018-11-12T05:45:25.790Z,90.00
2018-11-12T05:47:53.656Z,90.00
2018-11-12T05:50:23.074Z,90.00
2018-11-12T05:52:54.290Z,89.90
2018-11-12T05:55:23.084Z,89.90
2018-11-12T05:57:51.790Z,89.90
2018-11-12T06:00:29.948Z,89.90
2018-11-12T06:02:57.162Z,90.30
2018-11-12T06:05:24.322Z,90.00
2018-11-12T06:07:51.562Z,90.00
2018-11-12T06:10:20.045Z,90.00
2018-11-12T06:12:47.528Z,90.10
2018-11-12T06:15:14.981Z,90.20
2018-11-12T06:17:43.448Z,90.20
2018-11-12T06:20:16.808Z,90.20
2018-11-12T06:22:44.296Z,90.20
2018-11-12T06:25:12.681Z,90.20
2018-11-12T06:27:39.819Z,90.20
2018-11-12T06:30:13.264Z,90.30
2018-11-12T06:32:40.446Z,90.30
2018-11-12T06:35:08.940Z,90.30
2018-11-12T06:37:36.383Z,90.20
2018-11-12T06:40:04.695Z,90.30
2018-11-12T06:42:32.191Z,90.30
2018-11-12T06:44:59.272Z,90.20
2018-11-12T06:47:27.175Z,90.00
2018-11-12T06:49:54.551Z,89.90
2018-11-12T06:52:21.943Z,89.90
2018-11-12T06:54:49.146Z,89.40
2018-11-12T06:57:16.367Z,89.80
2018-11-12T06:59:43.577Z,89.10
2018-11-12T07:02:10.798Z,88.80
2018-11-12T07:04:38.709Z,88.80
2018-11-12T07:07:06.175Z,88.60
2018-11-12T07:09:33.458Z,88.40
2018-11-12T07:12:01.268Z,87.40
2018-11-12T07:14:28.394Z,87.10
2018-11-12T07:16:55.616Z,86.80
2018-11-12T07:19:23.107Z,86.30
2018-11-12T07:21:50.338Z,85.90
2018-11-12T07:24:17.545Z,85.60
2018-11-12T07:26:44.772Z,85.60
2018-11-12T07:29:12.019Z,85.40
2018-11-12T07:31:39.336Z,84.80
2018-11-12T07:34:06.579Z,84.80
2018-11-12T07:36:33.748Z,85.20
2018-11-12T07:39:01.222Z,84.50
2018-11-12T07:41:28.536Z,84.60
2018-11-12T07:43:55.857Z,84.10
2018-11-12T07:46:23.027Z,84.10
2018-11-12T07:48:50.377Z,84.80
2018-11-12T07:51:17.686Z,84.10
2018-11-12T07:53:44.894Z,83.90
2018-11-12T07:56:12.167Z,83.70
2018-11-12T07:58:39.359Z,83.50
2018-11-12T08:01:06.630Z,83.20
2018-11-12T08:03:34.042Z,83.00
2018-11-12T08:06:04.758Z,82.70
2018-11-12T08:08:32.151Z,82.40
2018-11-12T08:10:59.959Z,81.50
2018-11-12T08:13:27.109Z,81.60
2018-11-12T08:15:54.436Z,81.30
2018-11-12T08:18:21.994Z,80.80
2018-11-12T08:20:50.193Z,81.10
2018-11-12T08:23:17.514Z,81.50
2018-11-12T08:25:44.689Z,81.30
2018-11-12T08:28:11.839Z,81.30
2018-11-12T08:30:39.145Z,81.20
2018-11-12T08:33:06.806Z,81.30
2018-11-12T08:35:34.288Z,81.30
2018-11-12T08:38:01.534Z,81.40
2018-11-12T08:40:29.417Z,81.40
2018-11-12T08:42:56.468Z,81.30
2018-11-12T08:45:23.728Z,81.40
2018-11-12T08:47:52.229Z,81.50
2018-11-12T08:50:21.116Z,81.70
2018-11-12T08:52:50.437Z,82.10
2018-11-12T08:55:23.776Z,82.20
2018-11-12T08:57:52.740Z,82.50
2018-11-12T09:00:21.139Z,82.40
2018-11-12T09:02:51.738Z,82.50
2018-11-12T09:05:24.093Z,82.20
2018-11-12T09:07:54.016Z,81.90
2018-11-12T09:10:23.726Z,81.40
2018-11-12T09:12:51.534Z,81.00
2018-11-12T09:15:19.264Z,80.60
2018-11-12T09:17:49.570Z,80.00
2018-11-12T09:20:21.622Z,79.50
2018-11-12T09:22:49.357Z,78.70
2018-11-12T09:25:18.545Z,78.20
2018-11-12T09:27:48.063Z,77.80
2018-11-12T09:30:22.260Z,77.00
2018-11-12T09:32:50.233Z,77.00
2018-11-12T09:35:19.613Z,76.90
2018-11-12T09:37:48.493Z,76.80
2018-11-12T09:40:21.277Z,76.70
2018-11-12T09:42:49.481Z,76.70
2018-11-12T09:45:16.658Z,76.00
2018-11-12T09:47:44.203Z,76.30
2018-11-12T09:50:14.080Z,75.60
2018-11-12T09:52:42.700Z,75.10
2018-11-12T09:55:10.624Z,74.80
2018-11-12T09:57:39.805Z,74.30
2018-11-12T10:00:09.750Z,74.10
2018-11-12T10:02:38.277Z,73.20
2018-11-12T10:05:07.150Z,73.40
2018-11-12T10:07:34.434Z,72.70
2018-11-12T10:10:01.472Z,72.20
2018-11-12T10:12:29.177Z,72.00
2018-11-12T10:14:56.643Z,72.00
2018-11-12T10:17:25.410Z,71.90
2018-11-12T10:19:56.652Z,71.90
2018-11-12T10:22:23.812Z,71.80
2018-11-12T10:24:51.064Z,71.80
2018-11-12T10:27:19.257Z,71.50
2018-11-12T10:29:46.908Z,71.00
2018-11-12T10:32:14.055Z,71.00
2018-11-12T10:34:41.745Z,71.00
2018-11-12T10:37:08.866Z,71.30
2018-11-12T10:39:35.963Z,71.70
2018-11-12T10:42:03.278Z,71.80
2018-11-12T10:44:30.425Z,71.90
2018-11-12T10:46:59.991Z,72.00
2018-11-12T10:49:27.123Z,71.60
2018-11-12T10:51:56.238Z,71.50
2018-11-12T10:54:23.967Z,71.80
2018-11-12T10:56:50.908Z,72.30
2018-11-12T10:59:18.019Z,72.60
2018-11-12T11:01:50.941Z,72.50
2018-11-12T11:04:20.297Z,72.90
2018-11-12T11:06:47.614Z,72.90
2018-11-12T11:09:14.728Z,72.90
2018-11-12T11:11:41.886Z,73.00
2018-11-12T11:14:09.004Z,73.20
2018-11-12T11:16:37.087Z,72.80
2018-11-12T11:19:04.636Z,73.60
2018-11-12T11:21:32.484Z,74.30
2018-11-12T11:23:59.659Z,74.60
2018-11-12T11:26:27.304Z,75.20
2018-11-12T11:28:54.762Z,75.20
2018-11-12T11:31:21.946Z,74.80
2018-11-12T11:33:49.041Z,74.20
2018-11-12T11:36:16.163Z,73.70
2018-11-12T11:38:43.294Z,73.30
2018-11-12T11:41:10.420Z,73.10
2018-11-12T11:43:37.547Z,73.50
2018-11-12T11:46:05.349Z,73.30
2018-11-12T11:48:32.527Z,72.50
2018-11-12T11:50:59.890Z,72.50
2018-11-12T11:53:27.003Z,72.10
2018-11-12T11:55:54.160Z,71.30
2018-11-12T11:58:21.804Z,71.00
2018-11-12T12:00:48.903Z,70.90
2018-11-12T12:03:16.508Z,70.80
2018-11-12T12:05:43.639Z,70.40
2018-11-12T12:08:10.742Z,69.90
2018-11-12T12:10:37.849Z,69.50
2018-11-12T12:13:04.974Z,69.70
2018-11-12T12:15:32.135Z,69.40
2018-11-12T12:17:59.250Z,69.10
2018-11-12T12:20:26.854Z,68.00
2018-11-12T12:23:56.994Z,68.30
2018-11-12T12:26:24.143Z,67.80
2018-11-12T12:28:51.268Z,67.30
2018-11-12T12:31:18.364Z,67.10
2018-11-12T12:33:46.383Z,66.80
2018-11-12T12:36:13.557Z,66.70
2018-11-12T12:38:41.357Z,67.20
2018-11-12T12:41:08.425Z,67.20
2018-11-12T12:43:35.753Z,67.00
2018-11-12T12:46:02.954Z,67.40
2018-11-12T12:48:30.691Z,67.30
2018-11-12T12:50:57.943Z,66.80
2018-11-12T12:53:26.416Z,66.60
2018-11-12T12:55:53.731Z,66.40
2018-11-12T12:58:20.802Z,66.00
2018-11-12T13:00:47.851Z,65.50
2018-11-12T13:03:15.412Z,65.70
2018-11-12T13:05:42.535Z,66.40
2018-11-12T13:08:09.621Z,67.10
2018-11-12T13:10:36.771Z,67.60
2018-11-12T13:13:03.978Z,68.00
2018-11-12T13:15:31.152Z,68.60
2018-11-12T13:17:58.305Z,68.40
2018-11-12T13:20:25.499Z,68.60
2018-11-12T13:22:52.687Z,69.10
2018-11-12T13:25:20.054Z,69.50
2018-11-12T13:27:53.834Z,70.20
2018-11-12T13:30:22.175Z,70.60
2018-11-12T13:32:49.435Z,71.00
2018-11-12T13:35:19.835Z,71.60
2018-11-12T13:37:46.944Z,71.80
2018-11-12T13:40:18.595Z,72.30
2018-11-12T13:42:47.507Z,72.20
2018-11-12T13:45:14.677Z,72.70
2018-11-12T13:47:43.050Z,72.70
2018-11-12T13:50:16.811Z,72.70
2018-11-12T13:52:44.036Z,73.00
2018-11-12T13:55:13.264Z,73.10
2018-11-12T13:57:40.433Z,73.30
2018-11-12T14:00:09.319Z,73.50
2018-11-12T14:02:36.529Z,73.90
2018-11-12T14:05:04.919Z,73.90
2018-11-12T14:07:32.629Z,74.00
2018-11-12T14:09:59.783Z,74.20
2018-11-12T14:12:26.887Z,74.20
2018-11-12T14:14:54.245Z,74.30
2018-11-12T14:17:21.366Z,74.20
2018-11-12T14:19:48.453Z,74.40
2018-11-12T14:22:15.581Z,74.40
2018-11-12T14:24:42.740Z,74.00
2018-11-12T14:27:10.209Z,74.20
2018-11-12T14:29:37.347Z,74.50
2018-11-12T14:32:04.894Z,74.60
2018-11-12T14:34:31.981Z,74.80
2018-11-12T14:36:59.108Z,75.30
2018-11-12T14:39:26.300Z,75.60
2018-11-12T14:41:53.398Z,75.40
2018-11-12T14:44:20.507Z,75.50
2018-11-12T14:46:48.196Z,75.40
2018-11-12T14:49:15.338Z,75.40
2018-11-12T14:51:42.453Z,75.30
2018-11-12T14:54:09.596Z,75.20
2018-11-12T14:56:36.697Z,75.50
2018-11-12T14:59:04.019Z,75.60
2018-11-12T15:01:31.161Z,75.70
2018-11-12T15:03:58.285Z,76.00
2018-11-12T15:06:25.424Z,76.10
2018-11-12T15:08:53.748Z,76.60
2018-11-12T15:11:21.012Z,76.70
2018-11-12T15:13:48.639Z,76.70
2018-11-12T15:16:15.719Z,77.10
2018-11-12T15:18:42.814Z,77.30
2018-11-12T15:21:10.030Z,77.80
2018-11-12T15:23:37.027Z,78.00
2018-11-12T15:26:04.774Z,78.30
2018-11-12T15:28:31.886Z,78.80
2018-11-12T15:30:59.161Z,79.40
2018-11-12T15:33:26.254Z,79.80
2018-11-12T15:35:54.009Z,80.00
2018-11-12T15:38:21.228Z,80.30
2018-11-12T15:40:49.081Z,80.50
2018-11-12T15:43:16.535Z,80.90
2018-11-12T15:45:43.736Z,81.00
2018-11-12T15:48:11.403Z,80.90
2018-11-12T15:50:39.388Z,80.50
2018-11-12T15:53:06.682Z,80.10
2018-11-12T15:55:33.937Z,79.80
2018-11-12T15:58:01.237Z,79.60
2018-11-12T16:00:28.506Z,79.60
2018-11-12T16:02:56.110Z,79.40
2018-11-12T16:05:24.099Z,79.00
2018-11-12T16:07:51.331Z,79.70
2018-11-12T16:10:21.200Z,79.10
2018-11-12T16:12:50.094Z,79.60
2018-11-12T16:15:18.429Z,79.80
2018-11-12T16:17:47.515Z,79.70
2018-11-12T16:20:17.201Z,79.40
2018-11-12T16:22:45.788Z,79.10
2018-11-12T16:30:29.991Z,78.80
2018-11-12T16:32:57.551Z,79.10
2018-11-12T16:35:25.102Z,79.50
2018-11-12T16:37:53.249Z,79.70
2018-11-12T16:40:21.259Z,79.70
2018-11-12T16:42:49.829Z,79.30
2018-11-12T16:45:17.619Z,79.20
2018-11-12T16:47:45.221Z,79.10
2018-11-12T16:50:13.361Z,78.90
2018-11-12T16:52:41.452Z,79.20
2018-11-12T16:55:13.253Z,79.30
2018-11-12T16:57:41.407Z,79.10
2018-11-12T17:00:10.423Z,78.70
2018-11-12T17:02:39.479Z,78.30
2018-11-12T17:05:07.798Z,78.20
2018-11-12T17:07:36.708Z,77.70
2018-11-12T17:10:07.839Z,77.60
2018-11-12T17:12:40.223Z,77.60
2018-11-12T17:15:08.649Z,77.70
2018-11-12T17:17:38.780Z,77.50
2018-11-12T17:20:08.059Z,77.60
2018-11-12T17:22:37.127Z,77.60
2018-11-12T17:25:11.553Z,77.90
2018-11-12T17:27:43.447Z,77.80
2018-11-12T17:30:13.745Z,77.40
2018-11-12T17:32:42.042Z,76.60
2018-11-12T17:35:12.297Z,76.60
2018-11-12T17:37:43.207Z,76.40
2018-11-12T17:40:20.152Z,76.40
2018-11-12T17:42:49.654Z,76.70
2018-11-12T17:45:19.140Z,76.90
2018-11-12T17:47:52.988Z,76.80
2018-11-12T17:50:23.551Z,76.70
2018-11-12T17:52:51.381Z,76.20
2018-11-12T17:55:21.343Z,76.70
2018-11-12T18:00:31.413Z,76.20
2018-11-12T18:02:58.629Z,76.60
2018-11-12T18:05:25.893Z,76.80
2018-11-12T18:07:53.347Z,76.70
2018-11-12T18:10:20.385Z,76.80
2018-11-12T18:12:48.012Z,76.40
2018-11-12T18:15:19.052Z,76.60
2018-11-12T18:17:49.541Z,76.60
2018-11-12T18:20:23.942Z,76.40
2018-11-12T18:22:52.453Z,76.50
2018-11-12T18:25:20.368Z,76.20
2018-11-12T18:27:47.908Z,76.50
2018-11-12T18:30:17.739Z,76.50
2018-11-12T18:32:48.779Z,76.50
2018-11-12T18:35:17.631Z,76.70
2018-11-12T18:37:45.374Z,76.70
2018-11-12T18:40:13.966Z,77.10
2018-11-12T18:42:41.601Z,77.00
2018-11-12T18:45:12.049Z,77.90
2018-11-12T18:47:40.237Z,77.20
2018-11-12T18:50:10.104Z,77.20
2018-11-12T18:52:38.944Z,77.20
2018-11-12T18:55:07.130Z,77.10
2018-11-12T18:57:34.680Z,77.30
2018-11-12T19:00:04.078Z,77.80
2018-11-12T19:02:31.942Z,77.80
2018-11-12T19:04:59.363Z,77.80
2018-11-12T19:07:26.760Z,78.20
2018-11-12T19:09:53.960Z,78.10
2018-11-12T19:12:21.801Z,78.10
2018-11-12T19:14:50.702Z,78.40
2018-11-12T19:17:18.200Z,78.10
2018-11-12T19:19:45.644Z,78.30
2018-11-12T19:22:13.216Z,78.30
2018-11-12T19:24:42.159Z,78.30
2018-11-12T19:27:09.960Z,78.40
2018-11-12T19:29:39.288Z,78.40
2018-11-12T19:32:07.161Z,78.50
2018-11-12T19:34:34.547Z,78.60
2018-11-12T19:37:02.032Z,78.80
2018-11-12T19:39:30.655Z,78.90
2018-11-12T19:41:58.603Z,78.70
2018-11-12T19:44:25.957Z,78.20
2018-11-12T19:46:53.509Z,78.30
2018-11-12T19:49:21.004Z,78.10
2018-11-12T19:51:49.394Z,78.10
2018-11-12T19:54:17.245Z,78.20
2018-11-12T19:56:44.858Z,78.20
2018-11-12T19:59:12.509Z,78.20
2018-11-12T20:01:39.898Z,78.10
2018-11-12T20:04:08.863Z,78.30
2018-11-12T20:06:39.667Z,78.40
2018-11-12T20:09:08.593Z,78.30
2018-11-12T20:11:35.758Z,78.10
2018-11-12T20:14:04.505Z,78.10
2018-11-12T20:16:32.036Z,78.10
2018-11-12T20:18:59.387Z,78.30
2018-11-12T20:21:27.118Z,78.40
2018-11-12T20:23:55.221Z,78.50
2018-11-12T20:26:22.532Z,78.50
2018-11-12T20:28:49.696Z,78.60
2018-11-12T20:31:19.020Z,78.70
2018-11-12T20:33:48.508Z,78.90
2018-11-12T20:36:16.588Z,78.60
2018-11-12T20:38:44.047Z,78.80
2018-11-12T20:41:11.149Z,78.80
2018-11-12T20:43:38.600Z,78.90
2018-11-12T20:46:05.761Z,78.80
2018-11-12T20:48:32.956Z,78.70
2018-11-12T20:51:00.394Z,78.80
2018-11-12T20:53:27.915Z,78.80
2018-11-12T20:55:55.297Z,78.70
2018-11-12T20:58:22.535Z,79.80
2018-11-12T21:00:50.341Z,79.10
2018-11-12T21:03:19.232Z,79.30
2018-11-12T21:05:46.854Z,79.30
2018-11-12T21:08:14.236Z,79.40
2018-11-12T21:10:41.408Z,79.30
2018-11-12T21:13:09.225Z,79.30
2018-11-12T21:15:36.572Z,79.30
2018-11-12T21:18:04.313Z,79.40
2018-11-12T21:20:31.559Z,78.70
2018-11-12T21:22:58.955Z,78.60
2018-11-12T21:25:26.957Z,78.60
2018-11-12T21:27:54.752Z,78.50
2018-11-12T21:30:24.198Z,78.00
2018-11-12T21:32:52.120Z,77.70
2018-11-12T21:35:19.648Z,77.40
2018-11-12T21:37:48.099Z,77.20
2018-11-12T21:40:18.448Z,77.10
2018-11-12T21:42:46.080Z,77.10
2018-11-12T21:45:14.984Z,76.80
2018-11-12T21:47:43.014Z,76.70
2018-11-12T21:50:13.035Z,76.40
2018-11-12T21:52:40.178Z,75.80
2018-11-12T21:57:45.834Z,75.40
2018-11-12T22:00:17.667Z,74.80
2018-11-12T22:02:46.904Z,74.80
2018-11-12T22:05:14.765Z,74.80
2018-11-12T22:07:42.829Z,74.50
2018-11-12T22:10:12.000Z,74.50
2018-11-12T22:12:39.938Z,74.70
2018-11-12T22:15:07.761Z,74.60
2018-11-12T22:17:35.302Z,74.40
2018-11-12T22:20:04.382Z,74.40
2018-11-12T22:22:32.327Z,74.00
2018-11-12T22:24:59.782Z,73.90
2018-11-12T22:27:27.450Z,73.60
2018-11-12T22:29:55.695Z,73.60
2018-11-12T22:32:23.034Z,73.70
2018-11-12T22:34:50.552Z,73.60
2018-11-12T22:37:17.854Z,73.50
2018-11-12T22:39:45.327Z,73.70
2018-11-12T22:42:12.882Z,73.00
2018-11-12T22:44:40.239Z,72.90
2018-11-12T22:47:07.834Z,72.90
2018-11-12T22:49:35.133Z,72.80
2018-11-12T22:52:02.803Z,72.70
2018-11-12T22:54:31.708Z,72.90
2018-11-12T22:56:59.230Z,72.90
2018-11-12T22:59:26.677Z,72.90
2018-11-12T23:01:54.064Z,72.90
2018-11-12T23:04:22.776Z,72.70
2018-11-12T23:06:52.022Z,72.90
2018-11-12T23:09:20.108Z,73.00
2018-11-12T23:11:51.627Z,73.20
2018-11-12T23:14:22.658Z,73.40
2018-11-12T23:16:51.944Z,73.50
2018-11-12T23:19:20.898Z,73.80
2018-11-12T23:21:49.645Z,73.90
2018-11-12T23:24:18.366Z,73.80
2018-11-12T23:26:46.051Z,74.20
2018-11-12T23:29:14.213Z,74.10
2018-11-12T23:31:43.756Z,74.10
2018-11-12T23:34:16.035Z,74.50
2018-11-12T23:36:45.947Z,74.80
2018-11-12T23:39:15.527Z,74.90
2018-11-12T23:41:44.623Z,75.10
2018-11-12T23:44:14.294Z,75.10
2018-11-12T23:46:46.558Z,75.00
2018-11-12T23:49:14.125Z,74.90
2018-11-12T23:51:42.880Z,75.10
2018-11-12T23:54:12.343Z,75.20
2018-11-12T23:56:40.742Z,75.30
2018-11-12T23:59:11.113Z,75.60
